Time;durP1;ratioP1;P1;durP2;ratioP2;P2;SDS_P1;SDS_P2;PMS_P1;PMS_P2;Temp;Humidity;BMP_temperature;BMP_pressure;BME280_temperature;BME280_humidity;BME280_pressure;Samples;Min_cycle;Max_cycle;Signal;HPM_P1;HPM_P2
2021/04/25 00:00:00;;;;;;;11.27;10.13;;;;;;;;;;5008567;28;20679;-43
2021/04/25 00:02:25;;;;;;;18.50;11.30;;;;;;;;;;5005263;28;20188;-43
2021/04/25 00:04:50;;;;;;;11.73;10.63;;;;;;;;;;5008298;28;20170;-43
2021/04/25 00:07:16;;;;;;;12.48;10.88;;;;;;;;;;5003912;28;20175;-43
2021/04/25 00:09:41;;;;;;;12.18;11.15;;;;;;;;;;5004792;28;20203;-43
2021/04/25 00:12:06;;;;;;;13.27;11.93;;;;;;;;;;5007157;28;20637;-42
2021/04/25 00:14:31;;;;;;;15.23;12.20;;;;;;;;;;5007552;28;20246;-43
2021/04/25 00:16:57;;;;;;;13.67;11.50;;;;;;;;;;5008209;28;20207;-43
2021/04/25 00:19:22;;;;;;;13.27;11.60;;;;;;;;;;5007957;28;20173;-43
2021/04/25 00:21:47;;;;;;;12.70;11.40;;;;;;;;;;5007127;28;20207;-43
2021/04/25 00:24:13;;;;;;;12.30;11.20;;;;;;;;;;5008002;28;20185;-43
2021/04/25 00:26:38;;;;;;;12.82;11.50;;;;;;;;;;5007644;28;20175;-43
2021/04/25 00:29:04;;;;;;;13.82;12.10;;;;;;;;;;4997030;28;20186;-43
2021/04/25 00:31:29;;;;;;;13.37;10.87;;;;;;;;;;5006138;28;20635;-43
2021/04/25 00:33:54;;;;;;;13.60;12.17;;;;;;;;;;5007190;28;20184;-43
2021/04/25 00:36:19;;;;;;;13.00;11.70;;;;;;;;;;5008674;28;20182;-43
2021/04/25 00:38:44;;;;;;;13.40;12.07;;;;;;;;;;4995331;28;20186;-43
2021/04/25 00:41:10;;;;;;;12.63;11.32;;;;;;;;;;5007395;28;20205;-43
2021/04/25 00:43:35;;;;;;;12.70;11.50;;;;;;;;;;5006646;28;20662;-43
2021/04/25 00:46:00;;;;;;;12.80;11.60;;;;;;;;;;5008540;28;20644;-43
2021/04/25 00:48:25;;;;;;;13.03;11.63;;;;;;;;;;5005782;28;20204;-44
2021/04/25 00:50:51;;;;;;;13.47;12.10;;;;;;;;;;5006724;28;20201;-44
2021/04/25 00:53:16;;;;;;;12.35;11.05;;;;;;;;;;5005217;28;20940;-44
2021/04/25 00:55:41;;;;;;;12.33;11.13;;;;;;;;;;5005030;28;20185;-44
2021/04/25 00:58:07;;;;;;;11.63;10.53;;;;;;;;;;5008000;28;20182;-44
2021/04/25 01:00:32;;;;;;;12.67;11.37;;;;;;;;;;4994179;28;20202;-43
2021/04/25 01:02:57;;;;;;;13.13;11.33;;;;;;;;;;5001405;28;20663;-44
2021/04/25 01:05:23;;;;;;;13.57;12.17;;;;;;;;;;5008140;28;20247;-45
2021/04/25 01:07:49;;;;;;;11.17;10.10;;;;;;;;;;4995761;28;20185;-43
2021/04/25 01:10:14;;;;;;;14.17;11.70;;;;;;;;;;5006947;28;20205;-43
2021/04/25 01:12:40;;;;;;;12.07;10.93;;;;;;;;;;5000245;28;20305;-43
2021/04/25 01:15:06;;;;;;;12.17;10.97;;;;;;;;;;5000961;28;20744;-43
2021/04/25 01:17:32;;;;;;;12.07;10.63;;;;;;;;;;5001320;28;20723;-44
2021/04/25 01:19:57;;;;;;;12.63;11.43;;;;;;;;;;5007045;28;20600;-43
2021/04/25 01:22:22;;;;;;;11.80;10.63;;;;;;;;;;5003189;28;20663;-44
2021/04/25 01:24:48;;;;;;;12.03;10.80;;;;;;;;;;5006344;28;20265;-44
2021/04/25 01:27:13;;;;;;;13.50;11.70;;;;;;;;;;4998680;28;20170;-43
2021/04/25 01:29:38;;;;;;;12.87;10.50;;;;;;;;;;5007315;28;20638;-44
2021/04/25 01:32:04;;;;;;;11.60;10.23;;;;;;;;;;5005939;28;20276;-44
2021/04/25 01:34:29;;;;;;;14.93;11.57;;;;;;;;;;5006606;28;20217;-44
2021/04/25 01:36:56;;;;;;;14.20;12.70;;;;;;;;;;5006563;28;20208;-44
2021/04/25 01:39:22;;;;;;;13.37;11.70;;;;;;;;;;5008024;28;20166;-44
2021/04/25 01:41:47;;;;;;;13.30;11.70;;;;;;;;;;4995911;28;20732;-44
2021/04/25 01:44:12;;;;;;;14.70;13.10;;;;;;;;;;5008736;28;20181;-44
2021/04/25 01:46:37;;;;;;;13.80;12.50;;;;;;;;;;5004494;28;20178;-43
2021/04/25 01:49:02;;;;;;;12.90;11.73;;;;;;;;;;5010818;28;20174;-44
2021/04/25 01:51:27;;;;;;;17.13;12.67;;;;;;;;;;5002239;28;20648;-43
2021/04/25 01:53:53;;;;;;;14.18;11.68;;;;;;;;;;5002792;28;20643;-43
2021/04/25 01:56:18;;;;;;;12.27;11.03;;;;;;;;;;5009993;28;20202;-43
2021/04/25 01:58:43;;;;;;;12.60;11.40;;;;;;;;;;5007961;28;20181;-44
2021/04/25 02:01:08;;;;;;;15.70;12.83;;;;;;;;;;5008967;28;20800;-43
2021/04/25 02:03:33;;;;;;;13.70;12.18;;;;;;;;;;5011405;28;20735;-43
2021/04/25 02:05:59;;;;;;;14.37;12.90;;;;;;;;;;5010461;28;20182;-44
2021/04/25 02:08:24;;;;;;;12.97;11.70;;;;;;;;;;4999421;28;20185;-43
2021/04/25 02:10:50;;;;;;;13.27;11.88;;;;;;;;;;5007640;28;20236;-43
2021/04/25 02:13:15;;;;;;;13.00;11.80;;;;;;;;;;5011024;28;20212;-44
2021/04/25 02:15:40;;;;;;;15.53;11.80;;;;;;;;;;5010210;28;20186;-43
2021/04/25 02:18:06;;;;;;;22.23;12.03;;;;;;;;;;5010122;28;20701;-43
2021/04/25 02:20:31;;;;;;;12.50;11.23;;;;;;;;;;5008608;28;20209;-43
2021/04/25 02:22:57;;;;;;;13.40;10.73;;;;;;;;;;5010086;28;20214;-44
2021/04/25 02:25:22;;;;;;;12.90;11.47;;;;;;;;;;5007557;28;20559;-43
2021/04/25 02:27:48;;;;;;;13.53;10.90;;;;;;;;;;5009682;28;20809;-47
2021/04/25 02:30:16;;;;;;;11.70;10.57;;;;;;;;;;5008600;28;20178;-43
2021/04/25 02:32:41;;;;;;;11.90;10.23;;;;;;;;;;5010156;28;20719;-43
2021/04/25 02:35:07;;;;;;;13.20;11.02;;;;;;;;;;5007719;28;20694;-43
2021/04/25 02:37:32;;;;;;;12.37;11.17;;;;;;;;;;5005913;28;20271;-43
2021/04/25 02:39:57;;;;;;;12.20;11.10;;;;;;;;;;5009144;28;20639;-43
2021/04/25 02:42:23;;;;;;;14.23;11.10;;;;;;;;;;5008765;28;20177;-43
2021/04/25 02:44:48;;;;;;;14.30;10.30;;;;;;;;;;5009304;28;20170;-43
2021/04/25 02:47:13;;;;;;;15.18;11.40;;;;;;;;;;5009514;28;20230;-43
2021/04/25 02:49:38;;;;;;;13.20;11.80;;;;;;;;;;5008723;28;20240;-43
2021/04/25 02:52:03;;;;;;;11.70;10.60;;;;;;;;;;5005831;28;20955;-43
2021/04/25 02:54:29;;;;;;;11.07;9.90;;;;;;;;;;5008476;28;20200;-44
2021/04/25 02:56:54;;;;;;;12.03;10.73;;;;;;;;;;5008097;28;20189;-43
2021/04/25 02:59:19;;;;;;;13.87;11.47;;;;;;;;;;5006297;28;20187;-44
2021/04/25 03:01:44;;;;;;;12.57;11.40;;;;;;;;;;5007306;28;20296;-44
2021/04/25 03:04:10;;;;;;;12.88;11.32;;;;;;;;;;5009466;28;20179;-44
2021/04/25 03:06:35;;;;;;;12.07;10.88;;;;;;;;;;5008862;28;20180;-44
2021/04/25 03:09:00;;;;;;;12.93;11.63;;;;;;;;;;5009028;28;20213;-44
2021/04/25 03:11:25;;;;;;;12.15;11.05;;;;;;;;;;5004300;28;20243;-44
2021/04/25 03:13:50;;;;;;;12.95;11.68;;;;;;;;;;5008776;28;20192;-44
2021/04/25 03:16:15;;;;;;;12.73;11.37;;;;;;;;;;5009492;28;20184;-44
2021/04/25 03:18:41;;;;;;;13.90;11.40;;;;;;;;;;5007752;28;20178;-44
2021/04/25 03:21:06;;;;;;;12.63;11.40;;;;;;;;;;5008474;28;20260;-44
2021/04/25 03:23:31;;;;;;;13.17;11.80;;;;;;;;;;5007858;28;20192;-50
2021/04/25 03:25:56;;;;;;;13.00;11.60;;;;;;;;;;5008200;28;20181;-44
2021/04/25 03:28:22;;;;;;;13.73;11.80;;;;;;;;;;5006918;28;20170;-44
2021/04/25 03:30:47;;;;;;;12.60;11.30;;;;;;;;;;5007938;28;20180;-44
2021/04/25 03:33:12;;;;;;;13.00;11.73;;;;;;;;;;5007255;28;20259;-44
2021/04/25 03:35:37;;;;;;;13.70;12.40;;;;;;;;;;5009178;28;20541;-43
2021/04/25 03:38:03;;;;;;;12.87;11.70;;;;;;;;;;5004441;28;20206;-43
2021/04/25 03:40:28;;;;;;;12.48;11.18;;;;;;;;;;4996711;28;20569;-46
2021/04/25 03:42:53;;;;;;;13.73;11.68;;;;;;;;;;5008645;28;20180;-43
2021/04/25 03:45:18;;;;;;;12.30;11.10;;;;;;;;;;5004221;28;20171;-43
2021/04/25 03:47:45;;;;;;;12.83;11.47;;;;;;;;;;5008080;28;20536;-43
2021/04/25 03:50:11;;;;;;;12.93;11.63;;;;;;;;;;5007479;28;20261;-43
2021/04/25 03:52:36;;;;;;;14.10;12.53;;;;;;;;;;5008606;28;20706;-43
2021/04/25 03:55:02;;;;;;;13.93;12.53;;;;;;;;;;5005317;28;20609;-43
2021/04/25 03:57:27;;;;;;;13.03;11.73;;;;;;;;;;5003388;28;20185;-43
2021/04/25 03:59:53;;;;;;;13.87;12.57;;;;;;;;;;5003099;28;20609;-44
2021/04/25 04:02:18;;;;;;;14.40;12.90;;;;;;;;;;5002647;28;20199;-44
2021/04/25 04:04:43;;;;;;;13.07;11.77;;;;;;;;;;5005114;28;20434;-44
2021/04/25 04:07:08;;;;;;;13.93;12.50;;;;;;;;;;5000211;28;20173;-44
2021/04/25 04:09:33;;;;;;;14.27;12.88;;;;;;;;;;5002535;28;20196;-45
2021/04/25 04:11:58;;;;;;;14.82;13.32;;;;;;;;;;5007388;28;20211;-44
2021/04/25 04:14:24;;;;;;;14.00;12.48;;;;;;;;;;5007090;28;20177;-44
2021/04/25 04:16:49;;;;;;;13.37;12.17;;;;;;;;;;5004492;28;20171;-44
2021/04/25 04:19:14;;;;;;;16.33;13.63;;;;;;;;;;5008261;28;20179;-44
2021/04/25 04:21:39;;;;;;;14.50;12.98;;;;;;;;;;5001610;28;20295;-44
2021/04/25 04:24:04;;;;;;;14.25;12.75;;;;;;;;;;4994892;28;20588;-44
2021/04/25 04:26:29;;;;;;;13.57;11.93;;;;;;;;;;5006588;28;20184;-44
2021/04/25 04:28:55;;;;;;;14.67;13.17;;;;;;;;;;5005849;28;20536;-44
2021/04/25 04:31:20;;;;;;;13.50;12.10;;;;;;;;;;5006463;28;20267;-44
2021/04/25 04:33:45;;;;;;;13.95;12.63;;;;;;;;;;5004118;28;20177;-45
2021/04/25 04:36:10;;;;;;;15.00;12.63;;;;;;;;;;5008096;28;20186;-44
2021/04/25 04:38:35;;;;;;;14.15;12.75;;;;;;;;;;5001113;28;20705;-44
2021/04/25 04:41:01;;;;;;;15.75;13.57;;;;;;;;;;4995868;28;20197;-44
2021/04/25 04:43:26;;;;;;;14.13;12.73;;;;;;;;;;5007393;28;20171;-44
2021/04/25 04:45:52;;;;;;;14.53;13.17;;;;;;;;;;5007389;28;20178;-44
2021/04/25 04:48:18;;;;;;;14.93;13.33;;;;;;;;;;5006891;28;20185;-44
2021/04/25 04:50:43;;;;;;;14.20;12.70;;;;;;;;;;5008447;28;20606;-44
2021/04/25 04:53:09;;;;;;;14.90;13.17;;;;;;;;;;5001385;28;20194;-44
2021/04/25 04:55:34;;;;;;;13.70;12.40;;;;;;;;;;5008207;28;20188;-43
2021/04/25 04:57:59;;;;;;;14.33;12.77;;;;;;;;;;5007761;28;20257;-44
2021/04/25 05:00:24;;;;;;;15.77;13.85;;;;;;;;;;5008523;28;20224;-43
2021/04/25 05:02:49;;;;;;;14.10;12.80;;;;;;;;;;5007557;28;20173;-44
2021/04/25 05:05:14;;;;;;;13.27;11.90;;;;;;;;;;5003397;28;20184;-44
2021/04/25 05:07:40;;;;;;;14.10;12.40;;;;;;;;;;4990962;28;20171;-44
2021/04/25 05:10:06;;;;;;;13.53;12.23;;;;;;;;;;4999047;28;20202;-43
2021/04/25 05:12:31;;;;;;;14.10;12.73;;;;;;;;;;4997263;28;20218;-44
2021/04/25 05:14:56;;;;;;;13.20;11.83;;;;;;;;;;5001908;28;20960;-44
2021/04/25 05:17:21;;;;;;;15.40;13.90;;;;;;;;;;5008883;28;20629;-44
2021/04/25 05:19:46;;;;;;;15.40;13.00;;;;;;;;;;5014093;28;20652;-44
2021/04/25 05:22:12;;;;;;;13.95;12.65;;;;;;;;;;5025894;28;20201;-44
2021/04/25 05:24:37;;;;;;;12.68;11.45;;;;;;;;;;5007346;28;20181;-44
2021/04/25 05:27:02;;;;;;;13.77;12.57;;;;;;;;;;5009444;28;20225;-45
2021/04/25 05:29:27;;;;;;;13.77;12.47;;;;;;;;;;5012816;28;20173;-44
2021/04/25 05:31:52;;;;;;;13.43;12.10;;;;;;;;;;5011521;28;20173;-44
2021/04/25 05:34:18;;;;;;;13.90;12.60;;;;;;;;;;5009322;28;20187;-43
2021/04/25 05:36:43;;;;;;;13.73;12.33;;;;;;;;;;5009532;28;20268;-44
2021/04/25 05:39:08;;;;;;;12.90;11.80;;;;;;;;;;5006326;28;20217;-43
2021/04/25 05:41:33;;;;;;;17.17;12.80;;;;;;;;;;5006795;28;20203;-43
2021/04/25 05:43:59;;;;;;;14.30;12.97;;;;;;;;;;5010637;28;20171;-43
2021/04/25 05:46:24;;;;;;;13.30;12.00;;;;;;;;;;5009780;28;20251;-43
2021/04/25 05:48:49;;;;;;;13.70;11.93;;;;;;;;;;5010795;28;20177;-44
2021/04/25 05:51:14;;;;;;;14.70;13.30;;;;;;;;;;5010417;28;20181;-43
2021/04/25 05:53:40;;;;;;;13.20;11.80;;;;;;;;;;5005583;28;20186;-44
2021/04/25 05:56:05;;;;;;;14.73;13.30;;;;;;;;;;5005872;28;20234;-44
2021/04/25 05:58:30;;;;;;;13.67;12.30;;;;;;;;;;5003584;28;20215;-43
2021/04/25 06:00:55;;;;;;;13.35;12.07;;;;;;;;;;5010653;28;20199;-45
2021/04/25 06:03:20;;;;;;;13.60;12.30;;;;;;;;;;5011186;28;20218;-43
2021/04/25 06:05:46;;;;;;;14.33;12.93;;;;;;;;;;5011345;28;20177;-44
2021/04/25 06:08:11;;;;;;;13.33;12.03;;;;;;;;;;5011477;28;20235;-43
2021/04/25 06:10:36;;;;;;;12.80;11.60;;;;;;;;;;5010764;28;20214;-43
2021/04/25 06:13:01;;;;;;;13.55;12.20;;;;;;;;;;5010878;28;20313;-43
2021/04/25 06:15:26;;;;;;;13.23;11.87;;;;;;;;;;5010970;28;20564;-43
2021/04/25 06:17:51;;;;;;;13.32;12.02;;;;;;;;;;5010776;28;20187;-43
2021/04/25 06:20:17;;;;;;;13.13;11.93;;;;;;;;;;5007257;28;20195;-44
2021/04/25 06:22:42;;;;;;;13.30;11.97;;;;;;;;;;5001784;28;20707;-43
2021/04/25 06:25:11;;;;;;;11.90;10.80;;;;;;;;;;5010353;28;20183;-43
2021/04/25 06:27:37;;;;;;;12.00;10.90;;;;;;;;;;5009901;28;20181;-43
2021/04/25 06:30:02;;;;;;;12.47;11.17;;;;;;;;;;5002189;28;20729;-44
2021/04/25 06:32:27;;;;;;;14.10;11.47;;;;;;;;;;5009993;28;20211;-43
2021/04/25 06:34:53;;;;;;;12.27;11.07;;;;;;;;;;5004519;28;20716;-43
2021/04/25 06:37:18;;;;;;;11.30;10.25;;;;;;;;;;5007078;28;20175;-44
2021/04/25 06:39:43;;;;;;;11.87;10.67;;;;;;;;;;5010866;28;20193;-43
2021/04/25 06:42:08;;;;;;;12.47;11.17;;;;;;;;;;5007056;28;20214;-43
2021/04/25 06:44:34;;;;;;;12.07;10.80;;;;;;;;;;4997596;28;20761;-43
2021/04/25 06:46:59;;;;;;;11.90;10.80;;;;;;;;;;5004391;28;20172;-44
2021/04/25 06:49:24;;;;;;;12.83;10.00;;;;;;;;;;5010291;28;20665;-44
2021/04/25 06:51:49;;;;;;;11.63;10.47;;;;;;;;;;5004968;28;20207;-44
2021/04/25 06:54:15;;;;;;;12.03;10.40;;;;;;;;;;5009911;28;20218;-44
2021/04/25 06:56:40;;;;;;;11.70;10.60;;;;;;;;;;5009509;28;20654;-44
2021/04/25 06:59:05;;;;;;;11.73;10.60;;;;;;;;;;5009996;28;20182;-45
2021/04/25 07:01:30;;;;;;;12.00;10.67;;;;;;;;;;5009046;28;20203;-45
2021/04/25 07:03:56;;;;;;;12.00;10.80;;;;;;;;;;5008981;28;20236;-44
2021/04/25 07:06:21;;;;;;;13.13;10.02;;;;;;;;;;5008948;28;20226;-44
2021/04/25 07:08:47;;;;;;;10.03;9.13;;;;;;;;;;4994504;28;20189;-43
2021/04/25 07:11:12;;;;;;;9.93;9.03;;;;;;;;;;5007591;28;20286;-44
2021/04/25 07:13:37;;;;;;;9.83;8.70;;;;;;;;;;5005655;28;21011;-44
2021/04/25 07:16:03;;;;;;;9.50;8.60;;;;;;;;;;5005533;28;20189;-42
2021/04/25 07:18:28;;;;;;;10.43;9.20;;;;;;;;;;5010233;28;20191;-44
2021/04/25 07:20:55;;;;;;;10.15;9.15;;;;;;;;;;5008569;28;20196;-43
2021/04/25 07:23:20;;;;;;;10.00;9.07;;;;;;;;;;5006292;28;20185;-44
2021/04/25 07:25:45;;;;;;;10.83;9.80;;;;;;;;;;5006199;28;20623;-44
2021/04/25 07:28:10;;;;;;;9.97;8.97;;;;;;;;;;5009823;28;20501;-45
2021/04/25 07:30:36;;;;;;;9.07;8.17;;;;;;;;;;5009064;28;20266;-44
2021/04/25 07:33:01;;;;;;;9.30;8.13;;;;;;;;;;5009234;28;20227;-43
2021/04/25 07:35:26;;;;;;;8.63;7.80;;;;;;;;;;5009047;28;20177;-44
2021/04/25 07:37:51;;;;;;;8.53;7.47;;;;;;;;;;5009159;28;20486;-44
2021/04/25 07:40:17;;;;;;;8.33;7.60;;;;;;;;;;5008968;28;20261;-44
2021/04/25 07:42:43;;;;;;;8.60;7.70;;;;;;;;;;5009720;28;20296;-43
2021/04/25 07:45:09;;;;;;;9.13;7.77;;;;;;;;;;5009210;28;20173;-43
2021/04/25 07:47:35;;;;;;;8.00;7.30;;;;;;;;;;5009437;28;20711;-43
2021/04/25 07:50:00;;;;;;;8.03;7.27;;;;;;;;;;5008725;28;21043;-44
2021/04/25 07:52:25;;;;;;;7.67;6.80;;;;;;;;;;5009149;28;20531;-43
2021/04/25 07:54:50;;;;;;;6.50;5.67;;;;;;;;;;5008659;28;20181;-43
2021/04/25 07:57:16;;;;;;;6.40;5.80;;;;;;;;;;5008859;28;20184;-44
2021/04/25 07:59:41;;;;;;;6.80;6.10;;;;;;;;;;5009089;28;20232;-44
2021/04/25 08:02:06;;;;;;;6.10;5.50;;;;;;;;;;5008690;28;20276;-44
2021/04/25 08:04:32;;;;;;;7.20;6.50;;;;;;;;;;5008666;28;20260;-44
2021/04/25 08:06:57;;;;;;;6.68;6.13;;;;;;;;;;5009146;28;20898;-44
2021/04/25 08:09:22;;;;;;;6.83;5.90;;;;;;;;;;5008283;28;20181;-44
2021/04/25 08:11:47;;;;;;;6.47;5.67;;;;;;;;;;5008736;28;20326;-44
2021/04/25 08:14:12;;;;;;;6.65;5.35;;;;;;;;;;5008946;28;20253;-44
2021/04/25 08:16:38;;;;;;;6.10;5.57;;;;;;;;;;5008311;28;20560;-44
2021/04/25 08:19:03;;;;;;;6.40;4.83;;;;;;;;;;5008841;28;20201;-45
2021/04/25 08:21:30;;;;;;;5.30;4.80;;;;;;;;;;5008766;28;20239;-44
2021/04/25 08:23:55;;;;;;;5.40;4.90;;;;;;;;;;5008439;28;20201;-44
2021/04/25 08:26:21;;;;;;;5.63;5.13;;;;;;;;;;5008476;28;20612;-44
2021/04/25 08:28:46;;;;;;;5.97;5.37;;;;;;;;;;5008958;28;20224;-43
2021/04/25 08:31:11;;;;;;;5.40;5.00;;;;;;;;;;5008483;28;20173;-43
2021/04/25 08:33:36;;;;;;;6.10;5.47;;;;;;;;;;5008123;28;20173;-43
2021/04/25 08:36:02;;;;;;;5.27;4.77;;;;;;;;;;5008267;28;20569;-43
2021/04/25 08:38:27;;;;;;;7.23;5.83;;;;;;;;;;5008355;28;20186;-43
2021/04/25 08:40:52;;;;;;;6.33;5.57;;;;;;;;;;5008347;28;20244;-43
2021/04/25 08:43:17;;;;;;;5.77;5.27;;;;;;;;;;5008083;28;20193;-43
2021/04/25 08:45:45;;;;;;;7.13;6.43;;;;;;;;;;5008187;28;20251;-43
2021/04/25 08:48:11;;;;;;;7.67;5.90;;;;;;;;;;5008478;28;20266;-43
2021/04/25 08:50:37;;;;;;;7.20;6.07;;;;;;;;;;5008255;28;20656;-44
2021/04/25 08:53:02;;;;;;;7.00;6.20;;;;;;;;;;5009208;28;20189;-45
2021/04/25 08:55:27;;;;;;;6.57;6.07;;;;;;;;;;5012293;28;20193;-44
2021/04/25 08:57:53;;;;;;;7.77;5.80;;;;;;;;;;5012368;28;20174;-43
2021/04/25 09:00:19;;;;;;;6.67;5.77;;;;;;;;;;5012020;28;20625;-44
2021/04/25 09:02:44;;;;;;;7.00;6.30;;;;;;;;;;5012244;28;20174;-44
2021/04/25 09:05:09;;;;;;;6.67;6.07;;;;;;;;;;5011949;28;20660;-45
2021/04/25 09:07:34;;;;;;;8.23;5.90;;;;;;;;;;5011926;28;20177;-44
2021/04/25 09:10:00;;;;;;;6.60;6.00;;;;;;;;;;5012350;28;20190;-44
2021/04/25 09:12:37;;;;;;;5.70;4.60;;;;;;;;;;5011523;28;20280;-46
2021/04/25 09:15:05;;;;;;;5.50;5.00;;;;;;;;;;5012393;28;20695;-44
2021/04/25 09:17:46;;;;;;;6.20;5.60;;;;;;;;;;5011789;28;20608;-45
2021/04/25 09:20:11;;;;;;;7.17;6.10;;;;;;;;;;5011786;28;20607;-48
2021/04/25 09:22:42;;;;;;;6.77;5.97;;;;;;;;;;5011444;28;20628;-44
2021/04/25 09:25:12;;;;;;;7.10;5.50;;;;;;;;;;4992184;28;20652;-44
2021/04/25 09:27:39;;;;;;;7.60;5.80;;;;;;;;;;5002787;28;20590;-45
2021/04/25 09:30:05;;;;;;;6.53;5.07;;;;;;;;;;5011443;28;20618;-44
2021/04/25 09:32:32;;;;;;;4.57;4.27;;;;;;;;;;5011194;28;20633;-44
2021/04/25 09:35:11;;;;;;;4.60;4.20;;;;;;;;;;5011181;28;20261;-45
2021/04/25 09:37:37;;;;;;;7.70;4.97;;;;;;;;;;5011496;28;20847;-44
2021/04/25 09:40:29;;;;;;;5.97;5.47;;;;;;;;;;5011427;28;20614;-44
2021/04/25 09:43:03;;;;;;;5.97;5.40;;;;;;;;;;5010894;28;21223;-44
2021/04/25 09:45:30;;;;;;;6.30;5.70;;;;;;;;;;5010748;28;20701;-43
2021/04/25 09:47:55;;;;;;;5.47;4.97;;;;;;;;;;5011361;28;20615;-43
2021/04/25 09:50:22;;;;;;;5.50;5.00;;;;;;;;;;5011040;28;20589;-44
2021/04/25 09:52:50;;;;;;;6.30;5.73;;;;;;;;;;5011128;28;20204;-44
2021/04/25 09:55:18;;;;;;;5.10;4.70;;;;;;;;;;5011149;28;20622;-44
2021/04/25 09:57:44;;;;;;;7.93;5.90;;;;;;;;;;5011482;28;20614;-44
2021/04/25 10:00:10;;;;;;;6.20;5.60;;;;;;;;;;5011181;28;20620;-43
2021/04/25 10:03:18;;;;;;;5.50;4.93;;;;;;;;;;5010669;28;20678;-44
2021/04/25 10:06:00;;;;;;;4.70;4.40;;;;;;;;;;5008443;28;20645;-44
2021/04/25 10:08:32;;;;;;;5.30;4.80;;;;;;;;;;5008119;28;20755;-44
2021/04/25 10:10:57;;;;;;;5.50;5.00;;;;;;;;;;5009942;28;20625;-43
2021/04/25 10:13:24;;;;;;;5.83;5.13;;;;;;;;;;5010851;28;20601;-44
2021/04/25 10:15:50;;;;;;;6.30;5.40;;;;;;;;;;5010810;28;20650;-44
2021/04/25 10:18:16;;;;;;;5.70;5.20;;;;;;;;;;5010814;28;20589;-43
2021/04/25 10:20:42;;;;;;;6.33;5.03;;;;;;;;;;5010376;28;20197;-43
2021/04/25 10:23:07;;;;;;;6.53;5.22;;;;;;;;;;5010660;28;20612;-44
2021/04/25 10:25:37;;;;;;;6.70;6.03;;;;;;;;;;5010705;28;20178;-44
2021/04/25 10:28:11;;;;;;;6.10;5.50;;;;;;;;;;5010945;28;20253;-44
2021/04/25 10:30:37;;;;;;;5.60;4.43;;;;;;;;;;5010138;28;20687;-44
2021/04/25 10:33:03;;;;;;;6.20;5.03;;;;;;;;;;5010446;28;20598;-44
2021/04/25 10:35:32;;;;;;;4.90;4.30;;;;;;;;;;5010286;28;20594;-44
2021/04/25 10:37:57;;;;;;;6.07;5.50;;;;;;;;;;5010263;28;20594;-43
2021/04/25 10:40:23;;;;;;;5.13;4.73;;;;;;;;;;5010396;28;20594;-45
2021/04/25 10:42:57;;;;;;;5.73;5.23;;;;;;;;;;5010558;28;20174;-44
2021/04/25 10:45:28;;;;;;;5.43;4.93;;;;;;;;;;5010237;28;20252;-43
2021/04/25 10:48:22;;;;;;;5.93;5.33;;;;;;;;;;5010269;28;21331;-43
2021/04/25 10:50:49;;;;;;;6.10;5.40;;;;;;;;;;5009748;28;20681;-44
2021/04/25 10:53:24;;;;;;;5.70;5.20;;;;;;;;;;5010046;28;20613;-44
2021/04/25 10:55:51;;;;;;;6.23;5.20;;;;;;;;;;5010091;28;20675;-44
2021/04/25 10:58:17;;;;;;;5.57;5.07;;;;;;;;;;5009740;28;20595;-43
2021/04/25 11:00:45;;;;;;;5.63;5.07;;;;;;;;;;5009737;28;20650;-44
2021/04/25 11:03:11;;;;;;;10.43;8.37;;;;;;;;;;5009984;28;20618;-43
2021/04/25 11:05:36;;;;;;;6.93;6.23;;;;;;;;;;5009693;28;20577;-44
2021/04/25 11:08:05;;;;;;;6.63;5.27;;;;;;;;;;5009871;28;22621;-44
2021/04/25 11:10:50;;;;;;;5.43;4.53;;;;;;;;;;5009741;28;20200;-44
2021/04/25 11:13:34;;;;;;;5.60;5.20;;;;;;;;;;5009701;28;20693;-44
2021/04/25 11:16:01;;;;;;;5.17;4.67;;;;;;;;;;5009139;28;20574;-43
2021/04/25 11:18:46;;;;;;;7.00;4.63;;;;;;;;;;5009467;28;20596;-43
2021/04/25 11:21:36;;;;;;;6.40;5.73;;;;;;;;;;5009622;28;20637;-43
2021/04/25 11:24:01;;;;;;;5.90;5.50;;;;;;;;;;5006935;28;20657;-44
2021/04/25 11:26:42;;;;;;;5.23;4.80;;;;;;;;;;4991828;28;20640;-43
2021/04/25 11:29:07;;;;;;;6.93;5.30;;;;;;;;;;5003474;28;20186;-43
2021/04/25 11:31:44;;;;;;;4.60;4.20;;;;;;;;;;4998676;28;20586;-43
2021/04/25 11:34:25;;;;;;;6.20;4.87;;;;;;;;;;4994713;28;20179;-43
2021/04/25 11:36:51;;;;;;;5.10;4.60;;;;;;;;;;4995154;28;20964;-44
2021/04/25 11:39:17;;;;;;;4.03;3.63;;;;;;;;;;5004824;28;20888;-43
2021/04/25 11:41:42;;;;;;;5.30;4.80;;;;;;;;;;5012083;28;20664;-43
2021/04/25 11:44:08;;;;;;;6.00;5.50;;;;;;;;;;4987707;28;20175;-43
2021/04/25 11:46:34;;;;;;;6.40;5.07;;;;;;;;;;4991087;28;20656;-45
2021/04/25 11:49:01;;;;;;;6.07;5.17;;;;;;;;;;4997511;28;20257;-42
2021/04/25 11:51:26;;;;;;;5.53;4.47;;;;;;;;;;4989622;28;20590;-43
2021/04/25 11:53:51;;;;;;;4.87;4.47;;;;;;;;;;4998172;28;20599;-44
2021/04/25 11:56:23;;;;;;;6.82;5.80;;;;;;;;;;4994237;28;20587;-44
2021/04/25 11:58:48;;;;;;;5.13;4.60;;;;;;;;;;5008113;28;20178;-44
2021/04/25 12:01:23;;;;;;;5.40;4.50;;;;;;;;;;4994471;28;20642;-44
2021/04/25 12:03:49;;;;;;;5.90;5.40;;;;;;;;;;4997545;28;20639;-45
2021/04/25 12:06:14;;;;;;;5.73;5.20;;;;;;;;;;5005123;28;20632;-45
2021/04/25 12:08:48;;;;;;;5.93;5.23;;;;;;;;;;5002068;28;20179;-45
2021/04/25 12:11:20;;;;;;;5.40;4.63;;;;;;;;;;5001498;28;20238;-43
2021/04/25 12:13:45;;;;;;;8.37;5.57;;;;;;;;;;4996944;28;20625;-45
2021/04/25 12:16:16;;;;;;;7.13;4.83;;;;;;;;;;5003864;28;20613;-43
2021/04/25 12:18:43;;;;;;;5.70;5.20;;;;;;;;;;4998078;28;20189;-45
2021/04/25 12:21:16;;;;;;;6.07;5.03;;;;;;;;;;4999560;28;20656;-43
2021/04/25 12:23:53;;;;;;;5.80;5.27;;;;;;;;;;5005530;28;20818;-43
2021/04/25 12:26:20;;;;;;;5.33;4.83;;;;;;;;;;5005315;28;20595;-44
2021/04/25 12:28:48;;;;;;;5.20;4.80;;;;;;;;;;5004144;28;20604;-45
2021/04/25 12:31:14;;;;;;;4.60;4.03;;;;;;;;;;5004248;28;20724;-44
2021/04/25 12:33:41;;;;;;;5.20;4.70;;;;;;;;;;5003206;28;20988;-44
2021/04/25 12:36:13;;;;;;;5.47;4.97;;;;;;;;;;5000907;28;20632;-44
2021/04/25 12:38:39;;;;;;;5.97;4.83;;;;;;;;;;5001015;28;20639;-44
2021/04/25 12:41:09;;;;;;;5.27;4.73;;;;;;;;;;5003448;28;20648;-44
2021/04/25 12:43:37;;;;;;;6.93;4.60;;;;;;;;;;5015544;28;20596;-44
2021/04/25 12:46:13;;;;;;;5.67;4.60;;;;;;;;;;5007735;28;21631;-43
2021/04/25 12:48:40;;;;;;;6.20;5.60;;;;;;;;;;4998802;28;21161;-45
2021/04/25 12:51:16;;;;;;;6.63;5.77;;;;;;;;;;5005376;28;20619;-43
2021/04/25 12:53:50;;;;;;;6.00;5.50;;;;;;;;;;5005422;28;20969;-44
2021/04/25 12:56:19;;;;;;;5.17;4.67;;;;;;;;;;5004479;28;21120;-44
2021/04/25 12:59:04;;;;;;;5.70;5.20;;;;;;;;;;5004745;28;20678;-43
2021/04/25 13:01:30;;;;;;;5.97;5.30;;;;;;;;;;5003713;28;20643;-43
2021/04/25 13:03:56;;;;;;;5.20;4.70;;;;;;;;;;5005887;28;20589;-44
2021/04/25 13:06:28;;;;;;;6.07;5.57;;;;;;;;;;5005662;28;20183;-43
2021/04/25 13:08:54;;;;;;;5.20;4.70;;;;;;;;;;5004903;28;20177;-44
2021/04/25 13:11:32;;;;;;;4.97;4.47;;;;;;;;;;4993435;28;20726;-44
2021/04/25 13:14:04;;;;;;;5.60;5.10;;;;;;;;;;4997376;28;20669;-43
2021/04/25 13:16:29;;;;;;;5.30;4.80;;;;;;;;;;5003014;28;20753;-44
2021/04/25 13:18:55;;;;;;;6.10;4.80;;;;;;;;;;5002359;28;20609;-44
2021/04/25 13:21:20;;;;;;;5.03;4.63;;;;;;;;;;5002391;28;20209;-45
2021/04/25 13:23:45;;;;;;;5.70;5.20;;;;;;;;;;5003088;28;20219;-45
2021/04/25 13:26:10;;;;;;;5.88;5.10;;;;;;;;;;5006627;28;20173;-43
2021/04/25 13:28:35;;;;;;;5.13;4.68;;;;;;;;;;5001483;28;20174;-43
2021/04/25 13:31:02;;;;;;;5.40;4.90;;;;;;;;;;5007271;28;20232;-44
2021/04/25 13:33:28;;;;;;;6.27;5.77;;;;;;;;;;5006147;28;20268;-44
2021/04/25 13:35:55;;;;;;;5.33;4.93;;;;;;;;;;5006043;28;21443;-44
2021/04/25 13:38:21;;;;;;;5.40;5.00;;;;;;;;;;5004811;28;20655;-44
2021/04/25 13:40:47;;;;;;;7.03;6.43;;;;;;;;;;5009419;28;20642;-45
2021/04/25 13:43:13;;;;;;;6.10;5.50;;;;;;;;;;5008933;28;20695;-43
2021/04/25 13:45:38;;;;;;;6.30;5.70;;;;;;;;;;5010881;28;20604;-45
2021/04/25 13:48:04;;;;;;;6.20;5.60;;;;;;;;;;5011279;28;20640;-43
2021/04/25 13:50:30;;;;;;;5.83;4.83;;;;;;;;;;5010794;28;20182;-43
2021/04/25 13:52:55;;;;;;;7.97;5.60;;;;;;;;;;5011727;28;20644;-45
2021/04/25 13:55:21;;;;;;;7.00;5.83;;;;;;;;;;5009911;28;20185;-41
2021/04/25 13:57:46;;;;;;;7.40;5.57;;;;;;;;;;5010769;28;20865;-44
2021/04/25 14:00:13;;;;;;;5.70;5.20;;;;;;;;;;5007667;28;20193;-44
2021/04/25 14:02:38;;;;;;;6.07;5.40;;;;;;;;;;5005616;28;20233;-45
2021/04/25 14:05:04;;;;;;;7.23;6.10;;;;;;;;;;5009321;28;20654;-44
2021/04/25 14:07:29;;;;;;;7.53;5.60;;;;;;;;;;5009546;28;20177;-44
2021/04/25 14:09:54;;;;;;;14.70;11.00;;;;;;;;;;5005077;28;20551;-47
2021/04/25 14:12:20;;;;;;;7.28;5.45;;;;;;;;;;5009836;28;20333;-44
2021/04/25 14:14:45;;;;;;;5.17;4.77;;;;;;;;;;5010131;28;20174;-44
2021/04/25 14:17:10;;;;;;;5.60;4.63;;;;;;;;;;5010145;28;20192;-43
2021/04/25 14:19:35;;;;;;;5.57;4.90;;;;;;;;;;5010188;28;20181;-44
2021/04/25 14:22:01;;;;;;;5.43;4.60;;;;;;;;;;5009067;28;20210;-44
2021/04/25 14:24:26;;;;;;;5.90;5.30;;;;;;;;;;5010509;28;20185;-44